Briefing drone pour Bonneville

Rechercher une autre localisation

Conditions de vol :


Nous sommes le : Vendredi 29 septembre 2023
Il est 04:12 UTC (06:12 LT)

Lever de soleil : 05:03 UTC (07:03 LT)
Coucher de soleil : 17:46 UTC (19:46 LT)

Météo

L'essentiel des conditions de vol

VIGILANCE MÉTÉO FRANCE - Haute-Savoie (74)
Vigilance Jaune : Pluie-inondation / Avalanches
CARTE TEMSI
CARTES DES FRONTS
METAR de LFLP
LFLP 290400Z AUTO 08005KT CAVOK 12/10 Q1024 NOSIG

Date d'émission: 29/09/2023
Heure d'émission: 04:00 UTC
Vent: 080° pour 5 KT (9 km/h)
Visibilité horizontale: > 10 km
Plafond : Plafond et visibilité OK (CAVOK)
Température: 12 °C
Point de rosée: 10 °C
Humidité: 88%
Pression (QNH): 1024 hPa
Conditions: Pas de changement dans les 2 heures (NOSIG)
TAF de LFLP
LFLP 290200Z 2903/3003 VRB03KT CAVOK

Conditions prévues :

Heure d'émission : Bulletin éffectué le 29 à 03:00 UTC
Prévision : Valide du 29 a 03:00 UTC au 30 a 03:00 UTC
Vent : Variable pour 3 KT (6 km/h)
Visibilité : > 10 km
WEBCAM POUR BONNEVILLE

Réglementation

Voler en sécurité

CARTES AERONAUTIQUE 1/500.000
CARTE AZBA (Reseau basse altitude)
CARTES VAC (LFLP)
SUP AIP




Chargement des AIP...
NOTAM (BONNEVILLE + Terrain à proximité / FIR )




Chargement des NOTAMS...
CONTACT PREFECTURE 74
Haute-Savoie (74) : [email protected]


Avertissement : Les données mises à disposition sont indicatives. Oxygène Drone ne pourra être tenu responsable de dégâts causés aux biens et aux personnes.